Time;durP1;ratioP1;P1;durP2;ratioP2;P2;SDS_P1;SDS_P2;PMS_P1;PMS_P2;Temp;Humidity;BMP_temperature;BMP_pressure;BME280_temperature;BME280_humidity;BME280_pressure;Samples;Min_cycle;Max_cycle;Signal;HPM_P1;HPM_P2
2022/11/07 00:00:37;;;;;;;7.75;5.18;;;11.90;99.90;;;;;;4977045;28;98469;-72
2022/11/07 00:03:04;;;;;;;9.10;5.20;;;12.00;99.90;;;;;;4995560;28;98521;-72
2022/11/07 00:05:31;;;;;;;7.20;4.65;;;12.00;99.90;;;;;;5010220;28;99248;-72
2022/11/07 00:07:58;;;;;;;9.02;5.93;;;12.00;99.90;;;;;;4994865;28;111712;-72
2022/11/07 00:10:25;;;;;;;6.03;4.40;;;12.10;99.90;;;;;;5010265;28;101796;-72
2022/11/07 00:12:52;;;;;;;8.77;5.22;;;12.10;99.90;;;;;;4994927;28;98474;-72
2022/11/07 00:15:19;;;;;;;7.25;4.45;;;12.10;99.90;;;;;;4977402;28;98530;-72
2022/11/07 00:17:46;;;;;;;8.15;4.55;;;12.20;99.90;;;;;;5009949;28;100584;-72
2022/11/07 00:20:13;;;;;;;6.05;4.60;;;12.20;99.90;;;;;;4993745;28;99031;-72
2022/11/07 00:22:40;;;;;;;6.32;4.25;;;12.20;99.90;;;;;;4994108;28;97722;-72
2022/11/07 00:25:07;;;;;;;6.97;4.22;;;12.30;99.90;;;;;;4995142;28;98490;-72
2022/11/07 00:27:34;;;;;;;7.15;4.88;;;12.30;99.90;;;;;;4993931;28;113593;-72
2022/11/07 00:30:01;;;;;;;8.25;4.28;;;12.30;99.90;;;;;;4976253;28;101690;-72
2022/11/07 00:32:28;;;;;;;7.78;4.60;;;12.30;99.90;;;;;;4994774;28;98536;-72
2022/11/07 00:34:55;;;;;;;6.47;4.15;;;12.40;99.90;;;;;;4994698;28;98469;-72
2022/11/07 00:37:22;;;;;;;10.27;4.65;;;12.40;99.90;;;;;;5009941;28;101952;-72
2022/11/07 00:39:49;;;;;;;5.78;4.30;;;12.40;99.90;;;;;;4994428;28;99011;-72
2022/11/07 00:42:15;;;;;;;5.07;4.05;;;12.40;99.90;;;;;;4994951;28;98484;-72
2022/11/07 00:44:43;;;;;;;5.80;4.30;;;12.40;99.90;;;;;;5009900;28;98551;-72
2022/11/07 00:47:09;;;;;;;6.28;4.25;;;12.40;99.90;;;;;;4992495;28;98606;-72
2022/11/07 00:49:36;;;;;;;6.75;4.47;;;12.50;99.90;;;;;;4976042;28;98474;-72
2022/11/07 00:52:03;;;;;;;5.60;3.95;;;12.40;99.90;;;;;;4976606;28;98591;-72
2022/11/07 00:54:30;;;;;;;5.45;4.20;;;12.40;99.90;;;;;;4993869;28;99297;-72
2022/11/07 00:56:57;;;;;;;6.32;4.13;;;12.40;99.90;;;;;;4992776;28;99921;-72
2022/11/07 00:59:25;;;;;;;9.48;4.75;;;12.30;99.90;;;;;;4992701;28;101488;-72
2022/11/07 01:01:52;;;;;;;7.63;5.05;;;12.30;99.90;;;;;;4976565;28;98523;-72
2022/11/07 01:07:05;;;;;;;7.32;4.30;;;12.30;99.90;;;;;;4994002;28;99118;-72
2022/11/07 01:09:32;;;;;;;8.70;4.50;;;12.30;99.90;;;;;;4992729;28;99479;-72
2022/11/07 01:11:59;;;;;;;6.22;4.32;;;12.30;99.90;;;;;;5009968;28;97738;-72
2022/11/07 01:14:26;;;;;;;13.70;4.38;;;12.30;99.90;;;;;;4992847;28;98568;-72
2022/11/07 01:16:53;;;;;;;8.88;5.10;;;12.30;99.90;;;;;;4993801;28;99911;-72
2022/11/07 01:19:20;;;;;;;6.05;4.38;;;12.20;99.90;;;;;;4992366;28;99349;-72
2022/11/07 01:21:48;;;;;;;5.88;4.53;;;12.20;99.90;;;;;;4993813;28;98546;-72
2022/11/07 01:24:16;;;;;;;7.20;4.40;;;12.20;99.90;;;;;;5009348;28;98626;-72
2022/11/07 01:26:47;;;;;;;8.00;4.72;;;12.20;99.90;;;;;;5008627;28;101848;-72
2022/11/07 01:29:16;;;;;;;8.00;4.68;;;12.30;99.90;;;;;;4993904;28;99004;-72
2022/11/07 01:31:44;;;;;;;12.10;4.70;;;12.30;99.90;;;;;;4992641;28;98929;-72
2022/11/07 01:34:11;;;;;;;9.25;4.25;;;12.30;99.90;;;;;;4993675;28;98655;-72
2022/11/07 01:36:38;;;;;;;8.50;4.65;;;12.30;99.90;;;;;;5009229;28;99431;-72
2022/11/07 01:39:05;;;;;;;10.77;4.50;;;12.40;99.90;;;;;;5008598;28;101036;-72
2022/11/07 01:41:35;;;;;;;9.35;4.55;;;12.40;99.90;;;;;;4992490;28;98819;-72
2022/11/07 01:44:05;;;;;;;7.20;4.30;;;12.40;99.90;;;;;;4991958;28;99350;-72
2022/11/07 01:46:40;;;;;;;7.22;3.90;;;12.30;99.90;;;;;;4992032;28;100641;-72
2022/11/07 01:49:28;;;;;;;9.30;4.38;;;12.30;99.90;;;;;;5008590;28;99025;-72
2022/11/07 01:52:07;;;;;;;7.43;4.05;;;12.30;99.90;;;;;;4992385;28;98616;-72
2022/11/07 01:54:46;;;;;;;10.30;4.40;;;12.30;99.90;;;;;;4993655;28;98532;-72
2022/11/07 01:57:19;;;;;;;5.18;3.60;;;12.30;99.90;;;;;;4991959;28;102568;-72
2022/11/07 01:59:47;;;;;;;7.93;3.90;;;12.30;99.90;;;;;;4992749;28;98691;-72
2022/11/07 02:02:15;;;;;;;8.10;4.63;;;12.30;99.90;;;;;;4975867;28;97914;-72
2022/11/07 02:04:42;;;;;;;6.60;4.00;;;12.30;99.90;;;;;;4993341;28;98549;-72
2022/11/07 02:07:19;;;;;;;7.88;4.22;;;12.30;99.90;;;;;;4992926;28;99332;-72
2022/11/07 02:09:47;;;;;;;5.88;3.58;;;12.40;99.90;;;;;;5007751;28;99256;-72
2022/11/07 02:12:16;;;;;;;7.25;3.85;;;12.40;99.90;;;;;;5008697;28;98543;-72
2022/11/07 02:14:43;;;;;;;5.60;3.88;;;12.40;99.90;;;;;;4993268;28;98538;-72
2022/11/07 02:17:11;;;;;;;10.75;4.47;;;12.40;99.90;;;;;;4992627;28;99267;-72
2022/11/07 02:19:47;;;;;;;7.30;3.88;;;12.50;99.90;;;;;;5008195;28;101617;-72
2022/11/07 02:22:32;;;;;;;9.07;4.10;;;12.50;99.90;;;;;;4993226;28;98947;-72
2022/11/07 02:25:02;;;;;;;7.25;3.65;;;12.50;99.90;;;;;;4975130;28;98892;-72
2022/11/07 02:27:31;;;;;;;9.02;4.25;;;12.50;99.90;;;;;;4991724;28;101137;-72
2022/11/07 02:30:04;;;;;;;6.60;3.97;;;12.60;99.90;;;;;;4992472;28;99187;-72
2022/11/07 02:32:31;;;;;;;7.93;3.65;;;12.60;99.90;;;;;;4993180;28;98534;-72
2022/11/07 02:35:00;;;;;;;9.38;3.58;;;12.50;99.90;;;;;;4992591;28;99754;-72
2022/11/07 02:37:36;;;;;;;6.28;3.50;;;12.60;99.90;;;;;;4992261;28;109681;-72
2022/11/07 02:40:08;;;;;;;9.48;3.83;;;12.60;99.90;;;;;;4991420;28;99190;-72
2022/11/07 02:42:43;;;;;;;8.45;3.58;;;12.60;99.90;;;;;;4993339;28;99013;-72
2022/11/07 02:45:17;;;;;;;8.02;3.40;;;12.70;99.90;;;;;;4991520;28;98568;-72
2022/11/07 02:47:44;;;;;;;6.10;3.50;;;12.70;99.90;;;;;;4992255;28;99492;-72
2022/11/07 02:50:13;;;;;;;4.60;3.05;;;12.70;99.90;;;;;;4992292;28;99191;-72
2022/11/07 02:52:41;;;;;;;7.93;3.55;;;12.80;99.90;;;;;;4993331;28;97637;-72
2022/11/07 02:55:08;;;;;;;7.05;3.40;;;12.80;99.90;;;;;;4992488;28;98412;-72
2022/11/07 02:57:35;;;;;;;10.07;3.60;;;12.80;99.90;;;;;;4991953;28;98624;-72
2022/11/07 03:00:04;;;;;;;6.30;3.50;;;12.80;99.90;;;;;;4991913;28;99574;-72
2022/11/07 03:02:31;;;;;;;7.18;3.58;;;12.80;99.90;;;;;;4992925;28;98994;-72
2022/11/07 03:04:58;;;;;;;7.28;3.50;;;12.80;99.90;;;;;;4991516;28;98486;-72
2022/11/07 03:07:25;;;;;;;6.53;3.33;;;12.80;99.90;;;;;;5007331;28;109684;-72
2022/11/07 03:09:52;;;;;;;8.45;4.25;;;12.80;99.90;;;;;;4992326;28;98907;-72
2022/11/07 03:12:19;;;;;;;8.18;3.88;;;12.80;99.90;;;;;;4994881;28;98953;-72
2022/11/07 03:14:45;;;;;;;12.95;3.97;;;12.80;99.90;;;;;;4996117;28;98480;-72
2022/11/07 03:17:12;;;;;;;8.85;4.22;;;12.80;99.90;;;;;;4994700;28;98671;-72
2022/11/07 03:19:40;;;;;;;9.32;3.78;;;12.90;99.90;;;;;;4994336;28;100951;-72
2022/11/07 03:22:07;;;;;;;8.80;3.85;;;12.90;99.90;;;;;;4994738;28;99263;-72
2022/11/07 03:24:33;;;;;;;5.88;4.53;;;12.90;99.90;;;;;;4995454;28;99236;-72
2022/11/07 03:27:00;;;;;;;9.05;4.80;;;12.90;99.90;;;;;;4995404;28;99322;-72
2022/11/07 03:29:27;;;;;;;7.38;4.20;;;12.90;99.90;;;;;;5010865;28;101699;-72
2022/11/07 03:31:54;;;;;;;9.30;3.83;;;13.00;99.90;;;;;;4977818;28;98830;-72
2022/11/07 03:34:21;;;;;;;6.80;4.00;;;12.90;99.90;;;;;;4995710;28;98940;-72
2022/11/07 03:36:48;;;;;;;9.93;4.13;;;12.90;99.90;;;;;;4994240;28;99413;-72
2022/11/07 03:39:15;;;;;;;8.38;3.72;;;12.90;99.90;;;;;;4993874;28;98808;-72
2022/11/07 03:41:42;;;;;;;7.30;3.83;;;12.80;99.90;;;;;;4978571;28;97730;-72
2022/11/07 03:44:09;;;;;;;7.25;4.18;;;12.80;99.90;;;;;;4995477;28;98482;-72
2022/11/07 03:46:36;;;;;;;7.40;4.10;;;12.80;99.90;;;;;;4995273;28;99195;-72
2022/11/07 03:49:03;;;;;;;10.80;4.22;;;12.80;99.90;;;;;;4974565;28;101583;-72
2022/11/07 03:51:30;;;;;;;8.00;4.35;;;12.70;99.90;;;;;;5010957;28;98546;-72
2022/11/07 03:53:57;;;;;;;8.68;4.20;;;12.60;99.90;;;;;;4995542;28;98822;-72
2022/11/07 03:56:24;;;;;;;8.88;4.22;;;12.50;99.90;;;;;;5009985;28;101830;-72
2022/11/07 03:58:51;;;;;;;11.73;4.93;;;12.40;99.90;;;;;;4995098;28;99206;-72
2022/11/07 04:01:18;;;;;;;10.02;4.10;;;12.40;99.90;;;;;;4977765;28;98589;-72
2022/11/07 04:03:45;;;;;;;6.18;4.22;;;12.40;99.90;;;;;;4995588;28;99498;-72
2022/11/07 04:06:12;;;;;;;9.77;4.05;;;12.40;99.90;;;;;;4961081;28;101200;-72
2022/11/07 04:08:38;;;;;;;11.27;4.10;;;12.30;99.90;;;;;;4993749;28;98486;-72
2022/11/07 04:11:05;;;;;;;4.07;3.70;;;12.30;99.90;;;;;;5010250;28;98622;-72
2022/11/07 04:19:04;;;;;;;11.15;4.03;;;12.30;99.90;;;;;;4993982;28;99029;-72
2022/11/07 04:21:30;;;;;;;10.73;3.92;;;12.30;99.90;;;;;;4977127;28;98950;-72
2022/11/07 04:23:57;;;;;;;6.07;3.90;;;12.30;99.90;;;;;;4977477;28;98586;-72
2022/11/07 04:29:10;;;;;;;7.30;3.67;;;12.40;99.90;;;;;;5009557;28;101692;-72
2022/11/07 04:31:36;;;;;;;9.32;3.75;;;12.40;99.90;;;;;;4995287;28;97843;-72
2022/11/07 04:34:03;;;;;;;10.52;4.45;;;12.40;99.90;;;;;;5010195;28;98538;-72
2022/11/07 04:36:31;;;;;;;8.70;4.10;;;12.40;99.90;;;;;;4993013;28;99289;-72
2022/11/07 04:38:58;;;;;;;9.23;4.63;;;12.30;99.90;;;;;;4976533;28;101900;-72
2022/11/07 04:41:25;;;;;;;6.05;4.13;;;12.30;99.90;;;;;;5009866;28;98551;-72
2022/11/07 04:43:52;;;;;;;7.85;4.15;;;12.20;99.90;;;;;;4994726;28;99305;-72
2022/11/07 04:46:19;;;;;;;9.85;3.88;;;12.20;99.90;;;;;;5009343;28;101977;-72
2022/11/07 04:48:46;;;;;;;9.38;3.92;;;12.20;99.90;;;;;;4992310;28;98992;-72
2022/11/07 04:51:19;;;;;;;12.32;4.45;;;12.20;99.90;;;;;;4976630;28;98479;-72
2022/11/07 04:53:46;;;;;;;12.20;4.23;;;12.20;99.90;;;;;;4994774;28;98429;-72
2022/11/07 04:56:13;;;;;;;11.48;4.22;;;12.20;99.90;;;;;;4994315;28;98606;-72
2022/11/07 04:58:40;;;;;;;7.93;3.65;;;12.20;99.90;;;;;;4994380;28;98488;-72
2022/11/07 05:01:07;;;;;;;7.20;3.90;;;12.30;99.90;;;;;;4994640;28;98477;-72
2022/11/07 05:03:33;;;;;;;11.32;4.10;;;12.30;99.90;;;;;;4994019;28;99715;-72
2022/11/07 05:06:06;;;;;;;8.77;3.88;;;12.30;99.90;;;;;;5009181;28;101851;-72
2022/11/07 05:08:33;;;;;;;7.18;3.67;;;12.30;99.90;;;;;;4992640;28;100908;-72
2022/11/07 05:10:59;;;;;;;11.27;4.45;;;12.40;99.90;;;;;;5009789;28;98504;-72
2022/11/07 05:13:26;;;;;;;11.13;4.40;;;12.40;99.90;;;;;;4994356;28;99070;-72
2022/11/07 05:15:53;;;;;;;11.93;4.10;;;12.40;99.90;;;;;;4992742;28;99437;-72
2022/11/07 05:18:23;;;;;;;7.72;3.72;;;12.40;99.90;;;;;;4992126;28;101508;-72
2022/11/07 05:20:50;;;;;;;9.20;3.88;;;12.40;99.90;;;;;;4993509;28;97882;-72
2022/11/07 05:23:17;;;;;;;8.82;4.40;;;12.40;99.90;;;;;;4976231;28;98574;-72
2022/11/07 05:25:48;;;;;;;10.85;4.40;;;12.40;99.90;;;;;;4993813;28;99477;-72
2022/11/07 05:28:18;;;;;;;14.40;4.88;;;12.40;99.90;;;;;;4992990;28;99347;-72
2022/11/07 05:30:51;;;;;;;10.93;4.63;;;12.40;99.90;;;;;;5009437;28;98554;-72
2022/11/07 05:33:19;;;;;;;10.23;4.97;;;12.40;99.90;;;;;;4991854;28;98605;-72
2022/11/07 05:35:46;;;;;;;10.13;4.65;;;12.40;99.90;;;;;;4992464;28;107413;-72
2022/11/07 05:38:13;;;;;;;7.47;4.85;;;12.30;99.90;;;;;;4975866;28;99087;-72
2022/11/07 05:40:40;;;;;;;13.25;5.22;;;12.30;99.90;;;;;;5009059;28;99167;-72
2022/11/07 05:43:10;;;;;;;5.70;4.88;;;12.30;99.90;;;;;;4993783;28;98594;-72
2022/11/07 05:45:39;;;;;;;7.72;4.40;;;12.20;99.90;;;;;;4993604;28;98510;-72
2022/11/07 05:48:11;;;;;;;8.75;4.70;;;12.30;99.90;;;;;;4991483;28;100474;-72
2022/11/07 05:50:39;;;;;;;10.85;5.35;;;12.30;99.90;;;;;;4992459;28;98589;-72
2022/11/07 05:53:07;;;;;;;7.90;4.05;;;12.30;99.90;;;;;;5008549;28;99350;-72
2022/11/07 05:55:34;;;;;;;9.70;4.40;;;12.30;99.90;;;;;;4991489;28;102276;-72
2022/11/07 05:58:07;;;;;;;9.30;4.00;;;12.40;99.90;;;;;;4993212;28;99147;-72
2022/11/07 06:00:34;;;;;;;10.43;4.73;;;12.50;99.90;;;;;;4993668;28;98597;-72
2022/11/07 06:03:01;;;;;;;12.60;5.05;;;12.40;99.90;;;;;;5008572;28;98723;-72
2022/11/07 06:05:28;;;;;;;13.50;5.50;;;12.40;99.90;;;;;;4993106;28;99315;-72
2022/11/07 06:07:55;;;;;;;6.53;4.28;;;12.30;99.90;;;;;;4993183;28;99114;-72
2022/11/07 06:10:22;;;;;;;7.68;4.50;;;12.40;99.90;;;;;;4992314;28;97786;-72
2022/11/07 06:13:00;;;;;;;10.23;4.30;;;12.40;99.90;;;;;;4992095;28;99157;-72
2022/11/07 06:15:29;;;;;;;8.93;4.38;;;12.40;99.90;;;;;;5007641;28;102253;-72
2022/11/07 06:18:00;;;;;;;9.18;4.05;;;12.40;99.90;;;;;;4991446;28;99833;-72
2022/11/07 06:20:28;;;;;;;7.57;4.60;;;12.40;99.90;;;;;;4993519;28;98978;-72
2022/11/07 06:23:02;;;;;;;10.07;4.38;;;12.40;99.90;;;;;;5008415;28;98594;-72
2022/11/07 06:25:30;;;;;;;7.68;4.15;;;12.50;99.90;;;;;;4992658;28;99390;-72
2022/11/07 06:28:02;;;;;;;10.73;4.50;;;12.40;99.90;;;;;;4991515;28;98810;-72
2022/11/07 06:30:29;;;;;;;7.78;4.70;;;12.40;99.90;;;;;;4992984;28;98492;-72
2022/11/07 06:33:03;;;;;;;9.82;4.50;;;12.30;99.90;;;;;;4991662;28;98630;-72
2022/11/07 06:35:31;;;;;;;8.90;5.05;;;12.30;99.90;;;;;;4992791;28;98679;-72
2022/11/07 06:38:07;;;;;;;8.30;4.82;;;12.30;99.90;;;;;;4991264;28;100747;-72
2022/11/07 06:40:34;;;;;;;12.55;4.75;;;12.40;99.90;;;;;;5008115;28;98468;-72
2022/11/07 06:43:13;;;;;;;10.48;4.97;;;12.40;99.90;;;;;;4992514;28;99237;-72
2022/11/07 06:45:41;;;;;;;9.48;4.85;;;12.40;99.90;;;;;;5007496;28;101789;-72
2022/11/07 06:48:09;;;;;;;9.00;5.22;;;12.40;99.90;;;;;;4991428;28;112109;-72
2022/11/07 06:50:36;;;;;;;9.35;4.72;;;12.50;99.90;;;;;;4991600;28;98544;-72
2022/11/07 06:53:05;;;;;;;10.75;5.00;;;12.50;99.90;;;;;;4992617;28;98528;-72
2022/11/07 06:55:34;;;;;;;11.70;5.18;;;12.50;99.90;;;;;;4992103;28;101530;-72
2022/11/07 06:58:01;;;;;;;10.90;5.35;;;12.50;99.90;;;;;;4992424;28;99197;-72
2022/11/07 07:00:30;;;;;;;10.25;4.95;;;12.60;99.90;;;;;;4975384;28;97823;-72
2022/11/07 07:02:57;;;;;;;14.45;5.85;;;12.60;99.90;;;;;;5007930;28;98599;-72
2022/11/07 07:05:25;;;;;;;10.75;5.28;;;12.60;99.90;;;;;;4992186;28;99333;-72
2022/11/07 07:07:54;;;;;;;15.30;5.70;;;12.70;99.90;;;;;;4974279;28;99389;-72
2022/11/07 07:10:23;;;;;;;11.50;5.88;;;12.70;99.90;;;;;;4992532;28;98540;-72
2022/11/07 07:12:51;;;;;;;11.48;5.65;;;12.70;99.90;;;;;;4990866;28;98507;-72
2022/11/07 07:15:18;;;;;;;12.80;6.22;;;12.70;99.90;;;;;;4990709;28;100686;-72
2022/11/07 07:17:45;;;;;;;12.02;6.25;;;12.80;99.90;;;;;;4991757;28;99077;-72
2022/11/07 07:20:12;;;;;;;11.73;6.00;;;12.80;99.90;;;;;;4992578;28;98591;-72
2022/11/07 07:22:39;;;;;;;16.00;6.47;;;12.90;99.90;;;;;;4990975;28;98537;-72
2022/11/07 07:25:07;;;;;;;14.73;6.80;;;12.80;99.90;;;;;;4992312;28;98686;-72
2022/11/07 07:27:34;;;;;;;14.13;6.97;;;12.90;99.90;;;;;;4992086;28;98476;-72
2022/11/07 07:30:00;;;;;;;12.13;5.72;;;13.00;99.90;;;;;;4992437;28;98495;-72
2022/11/07 07:32:27;;;;;;;15.63;8.05;;;13.00;99.90;;;;;;4992053;28;99217;-72
2022/11/07 07:34:54;;;;;;;15.00;7.00;;;13.00;99.90;;;;;;4991639;28;99128;-72
2022/11/07 07:37:21;;;;;;;14.02;7.47;;;13.00;99.90;;;;;;4990458;28;103404;-72
2022/11/07 07:39:48;;;;;;;11.02;7.13;;;13.10;99.90;;;;;;4992173;28;98388;-72
2022/11/07 07:42:15;;;;;;;13.10;6.82;;;13.10;99.90;;;;;;4992286;28;98503;-72
2022/11/07 07:44:44;;;;;;;58.25;39.20;;;13.20;99.90;;;;;;4990034;28;102051;-72
2022/11/07 07:47:11;;;;;;;13.98;6.57;;;13.20;99.90;;;;;;4989734;28;99162;-72
2022/11/07 07:49:38;;;;;;;14.23;7.03;;;13.30;99.90;;;;;;4990563;28;97782;-72
2022/11/07 07:52:05;;;;;;;10.45;5.78;;;13.40;99.90;;;;;;4992043;28;98493;-72
2022/11/07 07:54:31;;;;;;;9.95;4.95;;;13.40;99.90;;;;;;4990143;28;101784;-72
2022/11/07 07:57:00;;;;;;;10.68;4.65;;;13.50;99.90;;;;;;4990155;28;101949;-72
2022/11/07 07:59:27;;;;;;;14.15;4.97;;;13.50;99.90;;;;;;4994213;28;98589;-72
2022/11/07 08:01:54;;;;;;;10.93;5.28;;;13.50;99.90;;;;;;4994890;28;98546;-72
2022/11/07 08:04:23;;;;;;;10.52;5.00;;;13.60;99.90;;;;;;4995074;28;99620;-72
2022/11/07 08:06:50;;;;;;;11.50;4.88;;;13.60;99.90;;;;;;4994432;28;110099;-72
2022/11/07 08:09:17;;;;;;;15.52;5.38;;;13.60;99.90;;;;;;4977459;28;98658;-72
2022/11/07 08:11:44;;;;;;;10.88;4.30;;;13.60;99.90;;;;;;4977045;28;98700;-72
2022/11/07 08:14:11;;;;;;;10.57;4.45;;;13.60;99.90;;;;;;4993913;28;98635;-72
2022/11/07 08:16:37;;;;;;;17.15;5.07;;;13.70;99.90;;;;;;4993737;28;99142;-72
2022/11/07 08:19:04;;;;;;;12.63;4.45;;;13.70;99.90;;;;;;5010330;28;98507;-72
2022/11/07 08:21:31;;;;;;;13.88;4.65;;;13.70;99.90;;;;;;4994753;28;99297;-72
2022/11/07 08:23:59;;;;;;;12.68;4.53;;;13.80;99.90;;;;;;4993086;28;100269;-72
2022/11/07 08:26:26;;;;;;;14.02;4.80;;;13.80;99.90;;;;;;4994666;28;98951;-72
2022/11/07 08:28:54;;;;;;;10.18;4.40;;;13.80;99.90;;;;;;5009865;28;98551;-72
2022/11/07 08:31:21;;;;;;;13.40;4.07;;;13.80;99.90;;;;;;4993559;28;98526;-72
2022/11/07 08:33:47;;;;;;;11.68;3.78;;;13.90;99.90;;;;;;4994317;28;99832;-72
2022/11/07 08:36:14;;;;;;;13.95;4.32;;;13.90;99.90;;;;;;5009664;28;101631;-72
2022/11/07 08:38:41;;;;;;;15.32;4.60;;;13.90;99.90;;;;;;4995087;28;97737;-72
2022/11/07 08:41:08;;;;;;;11.13;3.88;;;13.90;99.90;;;;;;4976729;28;98568;-72
2022/11/07 08:43:35;;;;;;;8.27;3.67;;;14.00;99.90;;;;;;4994539;28;99310;-72
2022/11/07 08:46:02;;;;;;;9.40;4.00;;;14.10;99.90;;;;;;4976069;28;99241;-72
2022/11/07 08:48:29;;;;;;;10.48;3.70;;;14.20;99.90;;;;;;4994459;28;98534;-72
2022/11/07 08:50:57;;;;;;;8.60;4.13;;;14.20;99.90;;;;;;4976740;28;98560;-72
2022/11/07 08:53:25;;;;;;;10.32;4.47;;;14.40;99.90;;;;;;4994256;28;99349;-72
2022/11/07 08:56:00;;;;;;;10.70;4.90;;;14.40;99.90;;;;;;5009084;28;98833;-72
2022/11/07 08:58:27;;;;;;;9.55;3.90;;;14.60;99.90;;;;;;4994642;28;98439;-72
2022/11/07 09:00:56;;;;;;;9.88;4.07;;;14.60;99.90;;;;;;5009127;28;104824;-72
2022/11/07 09:03:23;;;;;;;13.30;4.60;;;14.70;99.90;;;;;;4994527;28;98441;-72
2022/11/07 09:06:10;;;;;;;11.38;5.15;;;14.70;99.90;;;;;;4978896;28;101430;-72
2022/11/07 09:08:37;;;;;;;13.77;3.95;;;14.80;99.90;;;;;;5008407;28;98534;-72
2022/11/07 09:11:04;;;;;;;10.43;3.38;;;14.90;99.90;;;;;;4993978;28;99242;-72
2022/11/07 09:13:32;;;;;;;11.32;4.15;;;14.90;99.90;;;;;;4993986;28;98950;-72
2022/11/07 09:16:01;;;;;;;13.75;3.90;;;14.90;99.90;;;;;;4959382;28;101607;-72
2022/11/07 09:18:28;;;;;;;9.50;3.92;;;14.90;99.90;;;;;;4994240;28;98505;-72
2022/11/07 09:20:56;;;;;;;9.93;3.90;;;14.90;99.90;;;;;;5009230;28;98528;-72
2022/11/07 09:23:24;;;;;;;12.82;3.85;;;15.00;99.90;;;;;;4992528;28;99330;-72
2022/11/07 09:25:50;;;;;;;10.88;3.42;;;15.00;99.90;;;;;;4992226;28;99095;-72
2022/11/07 09:28:17;;;;;;;10.30;4.07;;;15.00;99.90;;;;;;4993381;28;97690;-72
2022/11/07 09:30:44;;;;;;;10.10;3.50;;;15.00;99.90;;;;;;5009379;28;98509;-72
2022/11/07 09:33:11;;;;;;;10.82;3.78;;;14.90;99.90;;;;;;4992294;28;99302;-72
2022/11/07 09:35:38;;;;;;;8.35;3.97;;;15.00;99.90;;;;;;4991675;28;112100;-72
2022/11/07 09:38:05;;;;;;;8.77;4.00;;;14.90;99.90;;;;;;4975904;28;98483;-72
2022/11/07 09:41:17;;;;;;;12.10;4.50;;;14.90;99.90;;;;;;5009203;28;98571;-72
2022/11/07 09:43:46;;;;;;;13.43;4.10;;;15.00;99.90;;;;;;4991680;28;102163;-72
2022/11/07 09:46:47;;;;;;;11.48;4.05;;;14.90;99.90;;;;;;4991933;28;99138;-72
2022/11/07 09:49:17;;;;;;;15.75;3.85;;;14.90;99.90;;;;;;4993284;28;98555;-72
2022/11/07 09:52:11;;;;;;;9.40;3.67;;;14.80;99.90;;;;;;4993773;28;98798;-72
2022/11/07 09:54:44;;;;;;;10.82;3.83;;;14.80;99.90;;;;;;4993559;28;98668;-72
2022/11/07 09:57:16;;;;;;;12.82;4.32;;;14.70;99.90;;;;;;5008355;28;98493;-72
2022/11/07 09:59:53;;;;;;;11.57;4.15;;;14.70;99.90;;;;;;4993766;28;98492;-72
2022/11/07 10:02:24;;;;;;;10.07;4.15;;;14.70;99.90;;;;;;4993603;28;99690;-72
2022/11/07 10:04:59;;;;;;;9.48;4.13;;;14.70;99.90;;;;;;4991937;28;100293;-72
2022/11/07 10:07:45;;;;;;;7.97;3.78;;;14.80;99.90;;;;;;4993358;28;99051;-72
2022/11/07 10:10:24;;;;;;;11.00;3.70;;;14.90;99.90;;;;;;4993198;28;98534;-72
2022/11/07 10:12:57;;;;;;;10.20;3.63;;;14.90;99.90;;;;;;4993305;28;98487;-72
2022/11/07 10:15:37;;;;;;;9.60;3.07;;;15.00;99.90;;;;;;4993399;28;99355;-72
2022/11/07 10:18:28;;;;;;;12.02;3.40;;;15.20;99.90;;;;;;4992837;28;98779;-72
2022/11/07 10:21:40;;;;;;;7.90;3.08;;;15.30;99.90;;;;;;4993357;28;98078;-72
2022/11/07 10:24:22;;;;;;;12.65;4.38;;;15.40;99.90;;;;;;5008577;28;99009;-72
2022/11/07 10:26:49;;;;;;;12.38;3.90;;;15.30;99.90;;;;;;4991766;28;99339;-72
2022/11/07 10:29:18;;;;;;;10.27;4.03;;;15.40;99.90;;;;;;4992262;28;99443;-72
2022/11/07 10:31:53;;;;;;;10.30;3.50;;;15.40;99.90;;;;;;5008196;28;98564;-72
2022/11/07 10:34:30;;;;;;;8.55;3.13;;;15.50;99.90;;;;;;4991825;28;99011;-72
2022/11/07 10:36:57;;;;;;;7.03;3.50;;;15.50;99.90;;;;;;4992764;28;99275;-73
2022/11/07 10:39:24;;;;;;;7.95;3.70;;;15.50;99.90;;;;;;4992799;28;99140;-72
2022/11/07 10:41:59;;;;;;;9.07;3.47;;;15.50;99.90;;;;;;4993078;28;98521;-72
2022/11/07 10:44:28;;;;;;;8.55;3.58;;;15.70;99.90;;;;;;4991914;28;98607;-72
2022/11/07 10:46:55;;;;;;;7.82;3.25;;;15.70;99.90;;;;;;4990996;28;118167;-72
2022/11/07 10:49:24;;;;;;;7.75;3.50;;;15.80;99.90;;;;;;4992127;28;98555;-72
2022/11/07 10:51:51;;;;;;;6.30;3.20;;;15.90;99.90;;;;;;4992925;28;98636;-72
2022/11/07 10:54:24;;;;;;;12.82;4.10;;;16.00;99.90;;;;;;4992195;28;99252;-72
2022/11/07 10:57:12;;;;;;;11.32;3.83;;;16.10;99.90;;;;;;4992438;28;99155;-73
2022/11/07 10:59:43;;;;;;;10.27;3.67;;;16.30;99.90;;;;;;4992708;28;98811;-72
2022/11/07 11:02:30;;;;;;;7.93;3.25;;;16.40;99.90;;;;;;5007806;28;98548;-72
2022/11/07 11:05:01;;;;;;;8.52;3.75;;;16.60;99.90;;;;;;4992808;28;98501;-72
2022/11/07 11:07:39;;;;;;;8.48;3.40;;;16.60;99.90;;;;;;4992265;28;99361;-72
2022/11/07 11:10:29;;;;;;;9.68;4.03;;;16.80;99.90;;;;;;4990424;28;104019;-73
2022/11/07 11:12:56;;;;;;;9.88;3.08;;;16.80;99.90;;;;;;4993337;28;97669;-73
2022/11/07 11:15:25;;;;;;;9.60;3.00;;;16.70;99.90;;;;;;4992477;28;99267;-72
2022/11/07 11:18:05;;;;;;;;;;;16.70;99.90;;;;;;4991558;28;99226;-72
2022/11/07 11:20:42;;;;;;;8.60;3.05;;;16.60;99.90;;;;;;4993135;28;99153;-72
2022/11/07 11:23:22;;;;;;;9.85;3.22;;;16.60;99.90;;;;;;4992679;28;98484;-73
2022/11/07 11:25:51;;;;;;;8.43;3.33;;;16.60;99.90;;;;;;4992440;28;98550;-72
2022/11/07 11:28:38;;;;;;;9.02;3.67;;;16.60;99.90;;;;;;5007154;28;101857;-72
2022/11/07 11:31:11;;;;;;;9.20;3.13;;;16.80;99.90;;;;;;5007356;28;99998;-72
2022/11/07 11:33:44;;;;;;;5.82;2.92;;;16.70;99.90;;;;;;4995538;28;98469;-72
2022/11/07 11:36:32;;;;;;;7.23;3.07;;;16.90;99.90;;;;;;4995931;28;98517;-73
2022/11/07 11:39:01;;;;;;;11.40;3.80;;;16.90;99.90;;;;;;4995893;28;98474;-73
2022/11/07 11:41:43;;;;;;;9.10;3.35;;;16.90;99.90;;;;;;4993712;28;100767;-73
2022/11/07 11:44:39;;;;;;;7.82;3.08;;;17.00;99.90;;;;;;4995867;28;98437;-73
2022/11/07 11:47:23;;;;;;;8.23;2.88;;;17.00;99.90;;;;;;4994011;28;99296;-73
2022/11/07 11:50:01;;;;;;;9.93;3.40;;;17.00;99.90;;;;;;5009674;28;101869;-73
2022/11/07 11:52:33;;;;;;;11.65;3.58;;;17.00;99.90;;;;;;5010586;28;99062;-72
2022/11/07 11:55:00;;;;;;;10.07;3.20;;;17.00;99.90;;;;;;4995863;28;98948;-72
2022/11/07 11:57:37;;;;;;;8.68;3.25;;;17.00;99.90;;;;;;4993826;28;98532;-72
2022/11/07 12:00:13;;;;;;;8.57;2.92;;;17.00;99.90;;;;;;5010334;28;101817;-72
2022/11/07 12:03:08;;;;;;;7.25;3.13;;;17.00;99.90;;;;;;5010286;28;102558;-72
2022/11/07 12:05:56;;;;;;;11.05;3.55;;;17.00;99.90;;;;;;4995848;28;97766;-72
2022/11/07 12:08:37;;;;;;;10.00;3.40;;;17.00;99.90;;;;;;4993998;28;98523;-72
2022/11/07 12:11:37;;;;;;;7.70;3.30;;;17.00;99.90;;;;;;4995012;28;99290;-73
2022/11/07 12:14:26;;;;;;;6.47;2.67;;;17.10;99.90;;;;;;4993398;28;99223;-73
2022/11/07 12:17:02;;;;;;;9.05;3.65;;;17.10;99.90;;;;;;4995351;28;98577;-73
2022/11/07 12:19:42;;;;;;;12.48;4.20;;;17.10;99.90;;;;;;4994995;28;98567;-72
2022/11/07 12:22:25;;;;;;;8.32;3.35;;;17.10;99.90;;;;;;5009813;28;102175;-73
2022/11/07 12:25:07;;;;;;;12.82;3.60;;;17.20;99.90;;;;;;4994788;28;99037;-73
2022/11/07 12:27:51;;;;;;;8.43;3.65;;;17.20;99.90;;;;;;4993834;28;98504;-73
2022/11/07 12:30:45;;;;;;;8.93;3.40;;;17.10;99.90;;;;;;4995024;28;98661;-73
2022/11/07 12:33:33;;;;;;;6.65;3.25;;;17.10;99.90;;;;;;4995038;28;98554;-73
2022/11/07 12:36:13;;;;;;;10.05;3.75;;;17.10;99.90;;;;;;4994671;28;98509;-72
2022/11/07 12:38:58;;;;;;;8.52;3.58;;;17.10;99.90;;;;;;4994739;28;98421;-72
2022/11/07 12:41:25;;;;;;;5.93;3.00;;;17.10;99.90;;;;;;4994455;28;99140;-73
2022/11/07 12:44:19;;;;;;;10.82;4.32;;;17.10;99.90;;;;;;4992702;28;106893;-73
2022/11/07 12:46:48;;;;;;;10.43;4.37;;;17.20;99.90;;;;;;4993133;28;101842;-73
2022/11/07 12:49:24;;;;;;;6.57;2.90;;;17.10;99.90;;;;;;5008797;28;98587;-72
2022/11/07 12:52:11;;;;;;;9.32;3.72;;;17.20;99.90;;;;;;4995037;28;98779;-73
2022/11/07 12:59:23;;;;;;;7.50;3.25;;;17.50;99.90;;;;;;4991755;28;98535;-73
2022/11/07 13:02:18;;;;;;;5.53;2.60;;;17.60;99.90;;;;;;4993622;28;97753;-73
2022/11/07 13:05:15;;;;;;;7.25;2.83;;;17.60;99.90;;;;;;4993218;28;98532;-73
2022/11/07 13:07:52;;;;;;;7.95;3.20;;;17.50;99.90;;;;;;5009268;28;99463;-73
2022/11/07 13:10:27;;;;;;;5.68;2.70;;;17.50;99.90;;;;;;4992130;28;99308;-72
2022/11/07 13:13:42;;;;;;;7.32;3.00;;;17.40;99.90;;;;;;5009923;28;99197;-72
2022/11/07 13:16:28;;;;;;;7.60;3.35;;;17.50;99.90;;;;;;4991053;28;98535;-73